Search for airport 
image banner adimage banner adimage banner ad
image banner ad

KONT - Ontario Intl

Located in Ontario, United States

ICAO - ONT, IATA - ONT

Data provided by Airmate  

General information

Coordinates: N34°3'22" W117°36'4"
Elevation is 944 feet MSL.
Magnetic variation is 12° East
View others Airports in California

Operational data

Special qualification required
Current time UTC:
Current local time:
Weather
METAR: KONT 260853Z 25006KT 7SM FEW014 17/13 A3002 RMK AO2 SLP151 T01720133 53004
TAF: KONT 260520Z 2606/2712 VRB04KT P6SM SCT150 SCT200 FM261200 VRB04KT 5SM HZ BKN009 FM261600 VRB04KT 6SM HZ SCT010 SCT150 FM262000 26011G17KT P6SM SCT150 FM270400 26006KT P6SM FEW150
View NOTAMs / SUP AIP / TFR affecting this airport [VIEW]
Communications frequencies: [VIEW]

Runways:

RWY identifierQFULength (ft)Width (ft)SurfaceLDA (ft)
08R90°10200150CONC10200
26L270°10200150CONC10200
08L90°12197150CONC11200
26R270°12197150CONC12197

Airport contact information

Address: Ontario United States

Satellite view of KONT